Time;durP1;ratioP1;P1;durP2;ratioP2;P2;SDS_P1;SDS_P2;PMS_P1;PMS_P2;Temp;Humidity;BMP_temperature;BMP_pressure;BME280_temperature;BME280_humidity;BME280_pressure;Samples;Min_cycle;Max_cycle;Signal;HPM_P1;HPM_P2
2024/04/22 00:00:22;;;;;;;5.30;2.80;;;;;;;0.65;100.00;99127.03;6101049;19;20030;-74
2024/04/22 00:02:24;;;;;;;6.43;3.10;;;;;;;0.80;100.00;99126.78;6100337;19;20026;-74
2024/04/22 00:04:24;;;;;;;7.32;3.75;;;;;;;0.73;100.00;99120.91;6102420;19;20002;-75
2024/04/22 00:06:24;;;;;;;5.28;3.30;;;;;;;0.79;100.00;99125.19;6100712;19;20174;-74
2024/04/22 00:08:25;;;;;;;5.93;3.33;;;;;;;0.77;100.00;99113.78;6101776;19;20031;-74
2024/04/22 00:10:25;;;;;;;6.07;3.30;;;;;;;0.71;100.00;99114.97;6101311;19;20126;-74
2024/04/22 00:12:25;;;;;;;6.35;3.03;;;;;;;0.71;100.00;99106.78;6102743;19;20694;-74
2024/04/22 00:14:26;;;;;;;5.53;3.28;;;;;;;0.70;100.00;99114.16;6101479;19;20010;-74
2024/04/22 00:16:26;;;;;;;5.03;2.97;;;;;;;0.78;100.00;99102.59;6102717;19;20011;-74
2024/04/22 00:18:26;;;;;;;5.40;4.18;;;;;;;0.73;100.00;99115.47;6101427;19;20010;-75
2024/04/22 00:20:27;;;;;;;4.40;2.80;;;;;;;0.88;100.00;99115.22;6101553;19;20034;-74
2024/04/22 00:22:27;;;;;;;5.45;3.75;;;;;;;0.78;100.00;99109.94;6101836;19;20014;-75
2024/04/22 00:24:27;;;;;;;5.25;3.45;;;;;;;0.70;100.00;99105.97;6099634;19;20527;-74
2024/04/22 00:26:28;;;;;;;5.35;3.80;;;;;;;0.66;100.00;99115.84;6101416;19;20258;-75
2024/04/22 00:28:28;;;;;;;4.57;3.20;;;;;;;0.64;100.00;99109.09;6102041;19;20074;-75
2024/04/22 00:30:28;;;;;;;5.53;2.85;;;;;;;0.60;100.00;99103.44;6100813;19;20070;-75
2024/04/22 00:32:28;;;;;;;4.45;3.00;;;;;;;0.57;100.00;99102.09;6101267;19;20006;-74
2024/04/22 00:34:29;;;;;;;4.68;3.17;;;;;;;0.68;100.00;99108.19;6100834;19;20350;-74
2024/04/22 00:36:29;;;;;;;4.55;2.78;;;;;;;0.62;100.00;99105.84;6101981;19;20002;-74
2024/04/22 00:38:30;;;;;;;3.90;2.80;;;;;;;0.56;100.00;99099.69;6100491;19;20003;-74
2024/04/22 00:40:30;;;;;;;5.40;3.05;;;;;;;0.51;100.00;99105.22;6091264;19;20007;-74
2024/04/22 00:42:30;;;;;;;5.18;3.45;;;;;;;0.43;100.00;99103.97;6102140;19;20309;-74
2024/04/22 00:44:31;;;;;;;7.85;3.70;;;;;;;0.38;100.00;99104.03;6099521;19;20006;-74
2024/04/22 00:46:32;;;;;;;4.55;2.95;;;;;;;0.42;100.00;99099.63;6100095;19;20394;-74
2024/04/22 00:48:32;;;;;;;4.22;3.03;;;;;;;0.43;100.00;99103.16;6100949;19;20397;-74
2024/04/22 00:50:33;;;;;;;6.18;3.75;;;;;;;0.47;100.00;99106.91;6098253;19;20010;-75
2024/04/22 00:52:33;;;;;;;5.28;3.28;;;;;;;0.44;100.00;99108.31;6100894;19;20010;-74
2024/04/22 00:54:35;;;;;;;4.13;3.22;;;;;;;0.51;100.00;99103.31;6101592;19;20006;-74
2024/04/22 00:56:37;;;;;;;6.45;3.60;;;;;;;0.48;100.00;99105.78;6100190;19;20034;-74
2024/04/22 00:58:38;;;;;;;8.48;3.55;;;;;;;0.53;100.00;99103.81;6099632;19;20013;-75
2024/04/22 01:00:39;;;;;;;5.05;3.30;;;;;;;0.51;100.00;99102.50;6099841;19;20006;-74
2024/04/22 01:02:40;;;;;;;4.57;2.90;;;;;;;0.51;100.00;99105.22;6099822;19;20007;-74
2024/04/22 01:04:43;;;;;;;4.72;3.45;;;;;;;0.50;100.00;99104.41;6101234;19;20236;-74
2024/04/22 01:06:44;;;;;;;6.85;3.85;;;;;;;0.44;100.00;99102.06;6101464;19;20002;-74
2024/04/22 01:08:44;;;;;;;6.10;3.70;;;;;;;0.45;100.00;99100.94;6098882;19;20010;-74
2024/04/22 01:10:45;;;;;;;7.75;3.67;;;;;;;0.43;100.00;99103.97;6097572;19;20585;-75
2024/04/22 01:12:46;;;;;;;5.05;3.70;;;;;;;0.46;100.00;99100.66;6099788;19;20110;-74
2024/04/22 01:14:46;;;;;;;5.43;4.10;;;;;;;0.52;100.00;99096.75;6100867;19;20006;-74
2024/04/22 01:16:56;;;;;;;5.32;3.33;;;;;;;0.50;100.00;99098.16;6099844;19;20021;-75
2024/04/22 01:18:57;;;;;;;5.75;3.67;;;;;;;0.62;100.00;99098.50;6100575;19;20009;-76
2024/04/22 01:20:57;;;;;;;6.63;3.60;;;;;;;0.57;100.00;99095.84;6100836;19;19998;-74
2024/04/22 01:22:57;;;;;;;5.57;3.88;;;;;;;0.53;100.00;99100.28;6100084;19;20007;-75
2024/04/22 01:24:59;;;;;;;6.35;4.28;;;;;;;0.60;100.00;99102.63;6100422;19;20006;-75
2024/04/22 01:27:03;;;;;;;6.22;3.92;;;;;;;0.61;100.00;99090.63;6098911;19;20042;-74
2024/04/22 01:29:04;;;;;;;6.43;4.20;;;;;;;0.63;100.00;99094.66;6101104;19;20840;-75
2024/04/22 01:31:04;;;;;;;6.35;3.80;;;;;;;0.69;100.00;99092.66;6098969;19;20007;-74
2024/04/22 01:33:04;;;;;;;5.53;3.50;;;;;;;0.73;100.00;99093.69;6101253;19;20498;-75
2024/04/22 01:35:04;;;;;;;6.65;3.90;;;;;;;0.68;100.00;99086.41;6100230;19;20018;-75
2024/04/22 01:37:05;;;;;;;5.18;3.50;;;;;;;0.67;100.00;99086.72;6099299;19;20030;-75
2024/04/22 01:39:05;;;;;;;9.48;4.53;;;;;;;0.75;100.00;99088.75;6098111;19;20007;-74
2024/04/22 01:41:05;;;;;;;6.65;3.88;;;;;;;0.81;100.00;99090.28;6092954;19;20019;-74
2024/04/22 01:43:06;;;;;;;10.60;4.30;;;;;;;0.96;100.00;99087.28;6093896;19;20027;-75
2024/04/22 01:45:06;;;;;;;6.80;4.10;;;;;;;0.92;100.00;99080.03;6093160;19;20013;-75
2024/04/22 01:47:07;;;;;;;5.93;3.47;;;;;;;0.95;100.00;99082.94;6093218;19;20463;-75
2024/04/22 01:49:08;;;;;;;5.07;3.38;;;;;;;0.94;100.00;99086.78;6093169;19;20042;-74
2024/04/22 01:51:08;;;;;;;6.28;4.15;;;;;;;0.93;100.00;99081.63;6092626;19;20038;-74
2024/04/22 01:53:09;;;;;;;6.43;4.10;;;;;;;0.86;100.00;99079.28;6093266;19;20062;-74
2024/04/22 01:55:09;;;;;;;4.97;3.35;;;;;;;0.82;100.00;99079.06;6094375;19;20010;-74
2024/04/22 01:57:09;;;;;;;8.80;3.63;;;;;;;0.76;100.00;99080.28;6093729;19;20078;-75
2024/04/22 01:59:10;;;;;;;5.20;3.53;;;;;;;0.71;100.00;99080.34;6091455;19;20014;-75
2024/04/22 02:01:10;;;;;;;5.93;3.50;;;;;;;0.70;100.00;99073.31;6092484;19;20433;-75
2024/04/22 02:03:10;;;;;;;5.47;4.30;;;;;;;0.71;100.00;99074.91;6093459;19;20010;-74
2024/04/22 02:05:11;;;;;;;5.65;3.90;;;;;;;0.70;100.00;99070.56;6092758;19;20389;-74
2024/04/22 02:07:11;;;;;;;5.93;3.85;;;;;;;0.68;100.00;99072.81;6089535;19;20982;-75
2024/04/22 02:09:11;;;;;;;5.65;3.30;;;;;;;0.62;100.00;99075.91;6092264;19;20014;-74
2024/04/22 02:11:11;;;;;;;5.43;3.38;;;;;;;0.55;100.00;99074.34;6091912;19;20516;-74
2024/04/22 02:13:12;;;;;;;6.63;4.18;;;;;;;0.59;100.00;99073.78;6092686;19;20066;-75
2024/04/22 02:15:12;;;;;;;4.75;3.60;;;;;;;0.59;100.00;99080.03;6092549;19;20062;-75
2024/04/22 02:17:15;;;;;;;6.97;4.00;;;;;;;0.60;100.00;99083.56;6092093;19;20021;-74
2024/04/22 02:19:15;;;;;;;;;;;;;;;0.57;100.00;99091.19;6093216;19;20011;-75
2024/04/22 02:21:15;;;;;;;5.30;3.25;;;;;;;0.53;100.00;99084.75;6091769;19;20225;-75
2024/04/22 02:23:16;;;;;;;5.43;3.45;;;;;;;0.56;100.00;99078.69;6092928;19;20015;-74
2024/04/22 02:25:16;;;;;;;10.10;3.65;;;;;;;0.55;100.00;99081.72;6093765;19;20040;-75
2024/04/22 02:27:16;;;;;;;5.07;3.45;;;;;;;0.52;100.00;99085.84;6097358;19;20413;-75
2024/04/22 02:29:16;;;;;;;6.60;3.83;;;;;;;0.52;100.00;99088.56;6097863;19;20038;-74
2024/04/22 02:31:19;;;;;;;4.13;3.55;;;;;;;0.52;100.00;99096.75;6096301;19;20030;-74
2024/04/22 02:33:19;;;;;;;6.20;3.80;;;;;;;0.50;100.00;99085.34;6097946;19;20022;-74
2024/04/22 02:35:19;;;;;;;5.35;3.60;;;;;;;0.52;100.00;99074.97;6098250;19;19999;-75
2024/04/22 02:37:19;;;;;;;4.53;3.15;;;;;;;0.56;100.00;99078.69;6097011;19;20003;-75
2024/04/22 02:39:20;;;;;;;4.70;3.47;;;;;;;0.68;100.00;99083.69;6093748;19;20013;-74
2024/04/22 02:41:20;;;;;;;6.75;3.88;;;;;;;0.64;100.00;99088.09;6104648;19;20033;-75
2024/04/22 02:43:20;;;;;;;5.50;3.80;;;;;;;0.58;100.00;99083.88;6105833;19;20569;-74
2024/04/22 02:45:21;;;;;;;5.90;3.97;;;;;;;0.59;100.00;99084.69;6103832;19;20045;-75
2024/04/22 02:47:21;;;;;;;5.47;3.65;;;;;;;0.53;100.00;99084.75;6103548;19;20002;-75
2024/04/22 02:49:21;;;;;;;5.20;3.42;;;;;;;0.51;100.00;99086.97;6104318;19;20333;-75
2024/04/22 02:51:22;;;;;;;5.88;3.80;;;;;;;0.46;100.00;99097.94;6102133;19;20035;-75
2024/04/22 02:53:22;;;;;;;6.60;4.10;;;;;;;0.42;100.00;99083.31;6103390;19;20043;-75
2024/04/22 02:55:28;;;;;;;6.30;3.60;;;;;;;0.46;100.00;99084.31;6104488;19;20459;-75
2024/04/22 02:57:28;;;;;;;5.35;3.63;;;;;;;0.53;100.00;99073.06;6100779;19;19999;-75
2024/04/22 02:59:29;;;;;;;7.03;3.83;;;;;;;0.52;100.00;99087.78;6100931;19;20009;-75
2024/04/22 03:01:32;;;;;;;5.32;4.03;;;;;;;0.54;100.00;99080.09;6098449;19;20003;-75
2024/04/22 03:03:33;;;;;;;6.28;4.25;;;;;;;0.53;100.00;99073.84;6101663;19;20020;-75
2024/04/22 03:05:36;;;;;;;6.90;3.70;;;;;;;0.53;100.00;99075.78;6104099;19;20346;-75
2024/04/22 03:07:36;;;;;;;7.95;4.28;;;;;;;0.53;100.00;99073.84;6103502;19;20019;-75
2024/04/22 03:09:40;;;;;;;5.28;3.63;;;;;;;0.49;100.00;99083.72;6101689;19;20557;-75
2024/04/22 03:11:40;;;;;;;6.93;4.30;;;;;;;0.44;100.00;99075.63;6099780;19;20014;-75
2024/04/22 03:13:41;;;;;;;7.53;4.25;;;;;;;0.47;100.00;99077.75;6097719;19;20010;-75
2024/04/22 03:15:41;;;;;;;6.22;3.88;;;;;;;0.52;100.00;99074.16;6099033;19;20504;-76
2024/04/22 03:17:41;;;;;;;5.13;3.78;;;;;;;0.56;100.00;99078.69;6096884;19;20014;-76
2024/04/22 03:19:42;;;;;;;7.32;4.63;;;;;;;0.55;100.00;99076.28;6094486;19;20019;-75
2024/04/22 03:21:42;;;;;;;8.13;4.30;;;;;;;0.51;100.00;99065.19;6098685;19;20011;-75
2024/04/22 03:23:42;;;;;;;6.03;3.80;;;;;;;0.49;100.00;99072.00;6102290;19;20022;-75
2024/04/22 03:25:42;;;;;;;7.97;4.72;;;;;;;0.49;100.00;99077.47;6102539;19;20021;-75
2024/04/22 03:27:43;;;;;;;7.32;4.55;;;;;;;0.52;100.00;99083.13;6101991;19;20006;-75
2024/04/22 03:29:43;;;;;;;7.18;4.35;;;;;;;0.64;100.00;99069.03;6100411;19;20019;-75
2024/04/22 03:31:43;;;;;;;7.88;4.78;;;;;;;0.59;100.00;99071.06;6101623;19;20007;-75
2024/04/22 03:33:44;;;;;;;11.13;5.70;;;;;;;0.52;100.00;99066.00;6103085;19;20007;-75
2024/04/22 03:35:44;;;;;;;8.75;4.57;;;;;;;0.53;100.00;99067.59;6101067;19;20257;-75
2024/04/22 03:37:45;;;;;;;6.03;4.43;;;;;;;0.54;100.00;99069.22;6102456;19;20042;-75
2024/04/22 03:39:45;;;;;;;7.78;4.50;;;;;;;0.53;100.00;99071.13;6098566;19;20002;-75
2024/04/22 03:41:45;;;;;;;6.70;4.38;;;;;;;0.59;100.00;99066.41;6099294;19;20025;-75
2024/04/22 03:43:46;;;;;;;7.43;4.60;;;;;;;0.68;100.00;99066.53;6101236;19;19999;-75
2024/04/22 03:49:50;;;;;;;6.57;4.15;;;;;;;0.69;100.00;99070.88;6102969;19;20012;-75
2024/04/22 03:50:25;;;;;;;6.55;4.28;;;;;;;0.68;100.00;99056.47;6102014;19;20030;-75
2024/04/22 03:52:26;;;;;;;8.00;4.25;;;;;;;0.70;100.00;99062.41;6103873;19;20006;-75
2024/04/22 03:54:26;;;;;;;6.40;4.15;;;;;;;0.72;100.00;99057.47;6101743;19;20075;-75
2024/04/22 03:56:27;;;;;;;7.93;4.32;;;;;;;0.70;100.00;99065.13;6102774;19;20003;-75
2024/04/22 03:58:27;;;;;;;7.70;4.10;;;;;;;0.72;100.00;99054.75;6101742;19;20017;-75
2024/04/22 04:00:27;;;;;;;8.23;4.38;;;;;;;0.75;100.00;99056.06;6102595;19;20066;-75
2024/04/22 04:02:28;;;;;;;7.53;5.15;;;;;;;0.69;100.00;99055.34;6100975;19;20003;-75
2024/04/22 04:04:28;;;;;;;7.72;4.32;;;;;;;0.71;100.00;99055.03;6102642;19;20388;-75
2024/04/22 04:06:28;;;;;;;7.82;5.38;;;;;;;0.71;100.00;99057.75;6103162;19;20002;-75
2024/04/22 04:08:29;;;;;;;6.47;4.22;;;;;;;0.69;100.00;99054.53;6101386;19;20011;-75
2024/04/22 04:10:29;;;;;;;7.00;4.50;;;;;;;0.66;100.00;99057.84;6100919;19;20007;-75
2024/04/22 04:12:29;;;;;;;5.75;4.40;;;;;;;0.63;100.00;99053.00;6103456;19;20003;-75
2024/04/22 04:14:30;;;;;;;7.30;4.72;;;;;;;0.69;100.00;99057.25;6103424;19;20385;-75
2024/04/22 04:16:30;;;;;;;7.75;4.78;;;;;;;0.69;100.00;99060.00;6102863;19;20442;-76
2024/04/22 04:18:30;;;;;;;6.70;4.25;;;;;;;0.63;100.00;99061.16;6102743;19;20066;-76
2024/04/22 04:20:31;;;;;;;6.18;4.40;;;;;;;0.57;100.00;99058.53;6102307;19;20010;-75
2024/04/22 04:22:31;;;;;;;8.60;4.50;;;;;;;0.58;100.00;99056.63;6102082;19;20011;-75
2024/04/22 04:24:32;;;;;;;8.32;4.97;;;;;;;0.62;100.00;99059.56;6100309;19;20013;-75
2024/04/22 04:26:32;;;;;;;9.13;4.20;;;;;;;0.63;100.00;99061.16;6100515;19;20358;-75
2024/04/22 04:28:32;;;;;;;9.38;4.70;;;;;;;0.66;100.00;99064.09;6100132;19;20002;-75
2024/04/22 04:30:33;;;;;;;10.35;5.10;;;;;;;0.70;100.00;99067.84;6101342;19;20007;-75
2024/04/22 04:32:33;;;;;;;7.57;4.40;;;;;;;0.68;100.00;99055.66;6100488;19;19999;-75
2024/04/22 04:34:33;;;;;;;7.95;4.82;;;;;;;0.60;100.00;99062.59;6102050;19;19998;-76
2024/04/22 04:36:33;;;;;;;7.22;4.57;;;;;;;0.62;100.00;99059.56;6099488;19;20017;-76
2024/04/22 04:38:35;;;;;;;5.90;4.03;;;;;;;0.67;100.00;99057.56;6102135;19;20011;-76
2024/04/22 04:40:35;;;;;;;6.38;3.85;;;;;;;0.66;100.00;99057.84;6100280;19;20006;-75
2024/04/22 04:42:35;;;;;;;8.20;4.28;;;;;;;0.65;100.00;99058.94;6102119;19;20006;-75
2024/04/22 04:44:36;;;;;;;7.43;4.97;;;;;;;0.60;100.00;99054.41;6100278;19;20003;-75
2024/04/22 04:46:36;;;;;;;8.07;4.07;;;;;;;0.65;100.00;99054.31;6101577;19;20391;-75
2024/04/22 04:48:36;;;;;;;8.45;4.88;;;;;;;0.60;100.00;99059.88;6099109;19;20346;-76
2024/04/22 04:50:37;;;;;;;18.88;6.25;;;;;;;0.55;100.00;99062.66;6099665;19;20307;-75
2024/04/22 04:52:37;;;;;;;7.78;4.30;;;;;;;0.55;100.00;99058.03;6100149;19;20008;-75
2024/04/22 04:54:37;;;;;;;6.55;4.03;;;;;;;0.61;100.00;99063.41;6099217;19;20019;-75
2024/04/22 04:56:38;;;;;;;14.57;4.57;;;;;;;0.61;100.00;99072.38;6102047;19;20019;-75
2024/04/22 04:58:38;;;;;;;7.03;4.18;;;;;;;0.61;100.00;99069.66;6100654;19;20011;-75
2024/04/22 05:00:39;;;;;;;7.93;4.93;;;;;;;0.61;100.00;99068.84;6100873;19;20033;-76
2024/04/22 05:02:39;;;;;;;7.38;4.32;;;;;;;0.62;100.00;99068.53;6102145;19;20002;-75
2024/04/22 05:04:40;;;;;;;9.32;4.25;;;;;;;0.64;100.00;99077.22;6102121;19;20072;-74
2024/04/22 05:06:41;;;;;;;9.55;4.10;;;;;;;0.58;100.00;99078.41;6100894;19;19998;-75
2024/04/22 05:08:43;;;;;;;8.27;4.45;;;;;;;0.58;100.00;99078.41;6101146;19;20026;-75
2024/04/22 05:10:43;;;;;;;7.00;4.32;;;;;;;0.58;100.00;99072.97;6100128;19;20499;-75
2024/04/22 05:12:44;;;;;;;8.85;4.07;;;;;;;0.59;100.00;99077.31;6101748;19;20593;-75
2024/04/22 05:14:44;;;;;;;8.00;4.40;;;;;;;0.61;100.00;99077.00;6101160;19;20282;-75
2024/04/22 05:16:45;;;;;;;5.55;3.65;;;;;;;0.59;100.00;99077.31;6099913;19;20393;-76
2024/04/22 05:18:45;;;;;;;5.80;3.95;;;;;;;0.55;100.00;99087.97;6101335;19;20073;-75
2024/04/22 05:20:45;;;;;;;8.63;3.63;;;;;;;0.47;100.00;99094.09;6098084;19;20019;-75
2024/04/22 05:22:46;;;;;;;9.77;3.53;;;;;;;0.46;100.00;99084.31;6099921;19;21023;-75
2024/04/22 05:24:46;;;;;;;6.63;3.80;;;;;;;0.35;100.00;99076.63;6101567;19;20026;-76
2024/04/22 05:26:46;;;;;;;5.78;3.67;;;;;;;0.31;100.00;99097.34;6099040;19;20019;-75
2024/04/22 05:28:46;;;;;;;4.88;3.33;;;;;;;0.27;100.00;99094.44;6099272;19;20007;-75
2024/04/22 05:30:47;;;;;;;4.82;3.30;;;;;;;0.27;100.00;99089.78;6100386;19;20110;-75
2024/04/22 05:32:47;;;;;;;8.80;3.92;;;;;;;0.27;100.00;99095.22;6101351;19;20003;-75
2024/04/22 05:37:07;;;;;;;7.90;3.80;;;;;;;0.37;100.00;99094.25;6099214;19;20006;-75
2024/04/22 05:39:07;;;;;;;5.60;3.60;;;;;;;0.35;100.00;99090.22;6091179;19;20010;-75
2024/04/22 05:41:11;;;;;;;5.75;3.67;;;;;;;0.35;100.00;99095.66;6098338;19;20007;-75
2024/04/22 05:43:11;;;;;;;4.30;2.92;;;;;;;0.25;100.00;99097.44;6099982;19;20010;-75
2024/04/22 05:45:11;;;;;;;3.65;2.45;;;;;;;0.32;100.00;99096.25;6100902;19;20464;-75
2024/04/22 05:47:12;;;;;;;4.93;3.08;;;;;;;0.27;100.00;99087.06;6100751;19;20039;-75
2024/04/22 05:49:12;;;;;;;6.15;3.25;;;;;;;0.20;100.00;99086.63;6099722;19;20018;-75
2024/04/22 05:51:12;;;;;;;4.20;2.72;;;;;;;0.15;100.00;99092.13;6099791;19;20337;-75
2024/04/22 05:53:13;;;;;;;3.13;2.35;;;;;;;0.12;100.00;99087.28;6101153;19;20010;-76
2024/04/22 05:55:13;;;;;;;6.25;3.20;;;;;;;0.12;100.00;99084.56;6101020;19;20022;-75
2024/04/22 05:57:13;;;;;;;7.05;3.33;;;;;;;0.08;100.00;99088.97;6098692;19;20013;-75
2024/04/22 05:59:15;;;;;;;5.13;2.70;;;;;;;0.08;100.00;99088.16;6100746;19;20007;-75
2024/04/22 06:01:16;;;;;;;4.85;2.75;;;;;;;0.02;100.00;99092.06;6097753;19;20026;-75
2024/04/22 06:03:16;;;;;;;5.75;2.97;;;;;;;0.07;100.00;99098.22;6100514;19;20231;-75
2024/04/22 06:05:16;;;;;;;7.22;3.20;;;;;;;0.17;100.00;99092.66;6098609;19;20321;-75
2024/04/22 06:07:17;;;;;;;5.82;3.22;;;;;;;0.18;100.00;99088.03;6099388;19;20388;-75
2024/04/22 06:09:22;;;;;;;5.03;2.63;;;;;;;0.20;100.00;99089.34;6099371;19;20887;-75
2024/04/22 06:11:22;;;;;;;4.55;2.88;;;;;;;0.20;100.00;99088.53;6099432;19;20332;-75
2024/04/22 06:13:23;;;;;;;7.57;3.30;;;;;;;0.20;100.00;99096.69;6099342;19;20082;-76
2024/04/22 06:15:23;;;;;;;6.18;3.78;;;;;;;0.23;100.00;99091.47;6099447;19;20380;-75
2024/04/22 06:17:24;;;;;;;8.02;3.70;;;;;;;0.32;100.00;99098.97;6098410;19;20003;-75
2024/04/22 06:19:24;;;;;;;7.28;3.22;;;;;;;0.37;100.00;99101.63;6099110;19;20010;-75
2024/04/22 06:21:24;;;;;;;5.68;3.08;;;;;;;0.41;100.00;99099.91;6096666;19;20005;-75
2024/04/22 06:23:25;;;;;;;6.30;3.45;;;;;;;0.38;100.00;99092.34;6099664;19;20002;-75
2024/04/22 06:25:25;;;;;;;4.80;2.80;;;;;;;0.47;100.00;99107.72;6098170;19;20379;-75
2024/04/22 06:27:25;;;;;;;7.45;3.72;;;;;;;0.53;100.00;99101.09;6100648;19;20343;-75
2024/04/22 06:29:26;;;;;;;29.52;5.53;;;;;;;0.62;100.00;99105.84;6096907;19;20010;-75
2024/04/22 06:31:26;;;;;;;5.50;3.40;;;;;;;0.57;100.00;99107.53;6098499;19;20011;-75
2024/04/22 06:33:27;;;;;;;6.30;3.42;;;;;;;0.61;100.00;99106.97;6100346;19;20304;-75
2024/04/22 06:35:28;;;;;;;5.45;3.15;;;;;;;0.63;100.00;99099.31;6099070;19;20034;-75
2024/04/22 06:37:28;;;;;;;7.07;3.55;;;;;;;0.66;100.00;99106.88;6097791;19;20002;-76
2024/04/22 06:39:29;;;;;;;7.65;3.42;;;;;;;0.69;100.00;99114.47;6096142;19;20013;-75
2024/04/22 06:41:29;;;;;;;6.32;3.13;;;;;;;0.75;100.00;99102.38;6089588;19;20318;-75
2024/04/22 06:43:29;;;;;;;5.43;3.50;;;;;;;0.74;100.00;99103.47;6092232;19;20438;-75
2024/04/22 06:45:30;;;;;;;7.18;3.92;;;;;;;0.82;100.00;99100.06;6092015;19;20018;-75
2024/04/22 06:47:30;;;;;;;5.97;3.33;;;;;;;0.94;100.00;99103.13;6092751;19;20392;-75
2024/04/22 06:49:30;;;;;;;4.70;3.47;;;;;;;0.92;100.00;99099.91;6091400;19;20425;-74
2024/04/22 06:51:31;;;;;;;7.85;3.97;;;;;;;0.94;100.00;99100.41;6091534;19;20260;-74
2024/04/22 06:53:31;;;;;;;6.30;3.55;;;;;;;0.96;100.00;99103.63;6092914;19;21034;-75
2024/04/22 06:55:31;;;;;;;5.35;3.40;;;;;;;1.01;100.00;99108.19;6092256;19;20011;-75
2024/04/22 06:57:32;;;;;;;31.42;5.53;;;;;;;1.00;100.00;99107.38;6092490;19;20034;-75
2024/04/22 06:59:32;;;;;;;17.63;4.50;;;;;;;1.03;100.00;99101.31;6089950;19;20597;-75
2024/04/22 07:01:32;;;;;;;7.95;4.30;;;;;;;1.12;100.00;99104.97;6092157;19;20030;-74
2024/04/22 07:03:33;;;;;;;8.00;3.90;;;;;;;1.24;100.00;99109.13;6091994;19;20090;-74
2024/04/22 07:05:33;;;;;;;8.55;3.72;;;;;;;1.28;100.00;99104.69;6091143;19;20049;-74
2024/04/22 07:07:34;;;;;;;12.05;6.28;;;;;;;1.33;100.00;99104.59;6091899;19;23019;-75
2024/04/22 07:09:34;;;;;;;9.43;5.47;;;;;;;1.42;100.00;99110.97;6090837;19;20011;-75
2024/04/22 07:11:35;;;;;;;6.57;4.18;;;;;;;1.55;100.00;99114.78;6093744;19;20002;-75
2024/04/22 07:13:36;;;;;;;8.85;3.97;;;;;;;1.60;100.00;99107.31;6097594;19;20507;-74
2024/04/22 07:15:36;;;;;;;5.75;4.10;;;;;;;1.73;100.00;99105.69;6097625;19;20002;-75
2024/04/22 07:17:36;;;;;;;5.25;3.30;;;;;;;1.74;100.00;99110.06;6097046;19;20804;-75
2024/04/22 07:19:36;;;;;;;4.32;3.15;;;;;;;1.82;100.00;99103.06;6096086;19;20006;-75
2024/04/22 07:21:37;;;;;;;5.90;3.28;;;;;;;1.90;100.00;99110.53;6097031;19;20744;-74
2024/04/22 07:23:37;;;;;;;13.45;4.50;;;;;;;1.98;100.00;99109.81;6097548;19;20006;-75
2024/04/22 07:25:37;;;;;;;6.78;3.38;;;;;;;1.98;100.00;99118.78;6097125;19;20744;-74
2024/04/22 07:27:38;;;;;;;5.55;3.78;;;;;;;2.11;100.00;99119.09;6095521;19;20002;-74
2024/04/22 07:29:40;;;;;;;6.72;3.92;;;;;;;2.11;100.00;99117.16;6093541;19;20011;-75
2024/04/22 07:31:42;;;;;;;7.57;4.05;;;;;;;2.16;100.00;99119.00;6095599;19;20111;-75
2024/04/22 07:33:43;;;;;;;8.25;4.10;;;;;;;2.11;100.00;99117.16;6097005;19;20367;-74
2024/04/22 07:35:50;;;;;;;5.65;3.88;;;;;;;2.13;100.00;99114.94;6096892;19;20015;-74
2024/04/22 07:37:54;;;;;;;6.68;4.00;;;;;;;2.23;100.00;99105.69;6097635;19;19998;-75
2024/04/22 07:40:03;;;;;;;5.15;3.67;;;;;;;2.26;100.00;99107.84;6097322;19;20382;-74
2024/04/22 07:42:04;;;;;;;6.05;4.20;;;;;;;2.30;100.00;99108.81;6104273;19;20091;-74
2024/04/22 07:44:05;;;;;;;6.70;4.13;;;;;;;2.27;100.00;99111.38;6102127;19;20016;-75
2024/04/22 07:46:05;;;;;;;7.30;4.35;;;;;;;2.32;100.00;99103.88;6103028;19;20369;-75
2024/04/22 07:48:06;;;;;;;6.72;3.83;;;;;;;2.27;100.00;99116.84;6101479;19;19998;-75
2024/04/22 07:50:07;;;;;;;5.90;3.92;;;;;;;2.28;100.00;99107.53;6101501;19;20631;-74
2024/04/22 07:52:08;;;;;;;7.57;3.50;;;;;;;2.33;100.00;99113.69;6102394;19;20099;-75
2024/04/22 07:54:09;;;;;;;10.05;4.07;;;;;;;2.38;100.00;99110.00;6102674;19;20007;-75
2024/04/22 07:56:13;;;;;;;6.40;3.97;;;;;;;2.48;100.00;99115.22;6103290;19;20424;-75
2024/04/22 07:58:14;;;;;;;5.10;3.63;;;;;;;2.47;100.00;99125.34;6101115;19;19999;-75
2024/04/22 08:00:15;;;;;;;5.38;3.20;;;;;;;2.44;100.00;99116.97;6101686;19;20034;-74
2024/04/22 08:02:16;;;;;;;5.55;3.20;;;;;;;2.28;100.00;99108.31;6102365;19;20006;-74
2024/04/22 08:04:17;;;;;;;6.05;3.35;;;;;;;2.23;100.00;99116.63;6103020;19;20397;-75
2024/04/22 08:06:22;;;;;;;4.72;3.45;;;;;;;2.21;100.00;99122.41;6103530;19;20422;-75
2024/04/22 08:08:26;;;;;;;9.43;3.97;;;;;;;2.14;100.00;99123.94;6100612;19;20382;-75
2024/04/22 08:10:27;;;;;;;5.13;3.10;;;;;;;2.11;100.00;99125.34;6102181;19;20011;-75
2024/04/22 08:12:28;;;;;;;6.28;3.63;;;;;;;2.13;100.00;99117.66;6101414;19;20416;-74
2024/04/22 08:14:28;;;;;;;5.75;3.45;;;;;;;2.19;100.00;99119.19;6103239;19;20405;-75
2024/04/22 08:16:28;;;;;;;6.57;3.35;;;;;;;2.35;100.00;99118.84;6102933;19;20460;-75
2024/04/22 08:18:29;;;;;;;7.15;4.40;;;;;;;2.50;100.00;99116.56;6102454;19;20034;-74
2024/04/22 08:20:29;;;;;;;6.63;4.82;;;;;;;2.53;100.00;99117.84;6101986;19;20010;-75
2024/04/22 08:22:31;;;;;;;5.57;3.10;;;;;;;2.57;100.00;99120.78;6101012;19;20317;-74
2024/04/22 08:24:31;;;;;;;5.00;3.08;;;;;;;2.50;100.00;99115.75;6102832;19;20460;-74
2024/04/22 08:26:32;;;;;;;7.68;3.10;;;;;;;2.50;100.00;99119.28;6102190;19;20015;-75
2024/04/22 08:28:32;;;;;;;5.35;3.00;;;;;;;2.60;100.00;99117.44;6102947;19;20030;-75
2024/04/22 08:30:33;;;;;;;5.68;2.83;;;;;;;2.76;100.00;99119.47;6102005;19;20502;-75
2024/04/22 08:32:33;;;;;;;4.05;3.05;;;;;;;2.86;100.00;99120.34;6101473;19;20010;-74
2024/04/22 08:34:33;;;;;;;5.38;3.33;;;;;;;2.97;100.00;99117.03;6103382;19;20469;-75
2024/04/22 08:36:34;;;;;;;7.97;3.85;;;;;;;3.17;100.00;99114.91;6102919;19;20425;-75
2024/04/22 08:38:34;;;;;;;4.18;2.83;;;;;;;3.13;100.00;99113.91;6101045;19;20535;-75
2024/04/22 08:40:34;;;;;;;6.32;3.72;;;;;;;3.21;100.00;99115.88;6102393;19;20300;-75
2024/04/22 08:42:36;;;;;;;5.50;3.28;;;;;;;3.39;100.00;99112.09;6101998;19;20005;-75
2024/04/22 08:44:37;;;;;;;5.20;3.15;;;;;;;3.59;100.00;99106.09;6102144;19;20018;-75
2024/04/22 08:46:37;;;;;;;4.88;3.33;;;;;;;3.66;100.00;99113.84;6102738;19;20412;-75
2024/04/22 08:48:38;;;;;;;5.03;3.60;;;;;;;3.73;100.00;99118.84;6099720;19;20010;-74
2024/04/22 08:50:40;;;;;;;5.40;3.60;;;;;;;3.84;100.00;99103.75;6099602;19;20006;-75
2024/04/22 08:52:41;;;;;;;8.35;3.22;;;;;;;3.82;100.00;99109.53;6103017;19;20006;-75
2024/04/22 08:54:41;;;;;;;6.35;3.65;;;;;;;3.82;100.00;99098.59;6102335;19;19999;-74
2024/04/22 08:56:41;;;;;;;5.97;3.72;;;;;;;3.91;100.00;99102.16;6102189;19;20388;-75
2024/04/22 08:58:41;;;;;;;5.47;3.15;;;;;;;3.95;100.00;99099.56;6101501;19;20081;-75
2024/04/22 09:00:42;;;;;;;6.30;3.55;;;;;;;4.02;100.00;99107.31;6101473;19;20032;-75
2024/04/22 09:02:43;;;;;;;7.30;3.95;;;;;;;4.04;100.00;99105.88;6101973;19;19999;-75
2024/04/22 09:04:46;;;;;;;7.60;4.00;;;;;;;3.93;100.00;99105.38;6102670;19;20332;-74
2024/04/22 09:06:49;;;;;;;6.22;3.80;;;;;;;3.98;100.00;99109.09;6101161;19;20002;-75
2024/04/22 09:08:51;;;;;;;5.10;3.60;;;;;;;3.98;100.00;99103.63;6101464;19;20429;-75
2024/04/22 09:10:58;;;;;;;7.20;3.53;;;;;;;4.04;100.00;99107.81;6101874;19;20523;-74
2024/04/22 09:13:00;;;;;;;6.32;3.83;;;;;;;4.16;100.00;99113.47;6099609;19;20034;-75
2024/04/22 09:15:01;;;;;;;7.73;4.10;;;;;;;4.27;100.00;99111.22;6102053;19;20326;-75
2024/04/22 09:17:01;;;;;;;6.13;3.63;;;;;;;4.38;100.00;99107.03;6100941;19;21077;-75
2024/04/22 09:19:02;;;;;;;6.15;3.50;;;;;;;4.44;100.00;99103.00;6101040;19;20006;-75
2024/04/22 09:21:10;;;;;;;5.80;3.60;;;;;;;4.54;100.00;99101.88;6100806;19;20067;-74
2024/04/22 09:23:10;;;;;;;6.78;3.53;;;;;;;4.52;100.00;99099.47;6100981;19;19999;-74
2024/04/22 09:25:10;;;;;;;7.38;3.30;;;;;;;4.67;100.00;99100.91;6100974;19;20569;-74
2024/04/22 09:27:11;;;;;;;6.25;3.20;;;;;;;4.73;100.00;99103.16;6101600;19;20022;-75
2024/04/22 09:29:12;;;;;;;4.63;3.30;;;;;;;4.82;100.00;99105.91;6100305;19;20013;-75
2024/04/22 09:31:17;;;;;;;5.25;3.90;;;;;;;4.86;100.00;99098.63;6100009;19;20454;-75
2024/04/22 09:33:21;;;;;;;6.45;3.38;;;;;;;5.00;100.00;99099.25;6100962;19;20509;-75